• Join FlightAware (Why Join?)
  • Login
  • US Flag GB Flag 
10:02 EDT


 

Airport Tracker/Info


-or-


 

Live Flight TrackerFlight Track Log ✈ UAL4476 ✈ 18-Apr-2013 ✈ KCLE - KBOS

Flight Track Log - Related Links

Times and Time Zones

All times are in EDT time to prevent confusion due to time zone crossing. See the UAL4476 flight status page for this flight to view local times or setup timezone preferences in your user account.

Time Position Orientation Groundspeed Altitude Reporting Facility
EDT Latitude Longitude Course Direction KTS MPH feet Rate Location/Type
09:07 41.3919 -81.8839 293° West 172 198 1,800  Level Cleveland Center
09:08 41.4058 -81.9286 293° West 211 243 3,400 1,920 Climbing Cleveland Center
09:09 41.4731 -81.8800 28° Northeast 273 314 5,100 1,860 Climbing Cleveland Center
09:10 41.5322 -81.8092 42° Northeast 303 349 7,200 1,980 Climbing Cleveland Center
09:11 41.5956 -81.7297 43° Northeast 303 349 9,100 1,740 Climbing Cleveland Center
09:12 41.6425 -81.6250 59° Northeast 328 377 10,700 1,200 Climbing Cleveland Center
09:13 41.6667 -81.4892 77° East 345 397 11,500 900 Climbing Cleveland Center
09:14 41.6947 -81.3339 76° East 375 432 12,600 1,140 Climbing Cleveland Center
09:15 41.7208 -81.1839 77° East 401 461 13,800 1,140 Climbing Cleveland Center
09:16 41.7464 -81.0339 77° East 407 468 14,900 1,140 Climbing Cleveland Center
09:17 41.7719 -80.8811 77° East 415 478 16,100 1,140 Climbing Cleveland Center
09:18 41.7994 -80.7281 76° East 415 478 17,200 1,080 Climbing Cleveland Center
09:19 41.8244 -80.5747 78° East 410 472 18,300 1,140 Climbing Cleveland Center
09:20 41.8494 -80.4214 78° East 420 483 19,500 1,140 Climbing Cleveland Center
09:21 41.8761 -80.2625 77° East 420 483 20,600 1,020 Climbing Cleveland Center
09:22 41.8986 -80.1228 78° East 427 491 21,600 1,020 Climbing Cleveland Center
09:23 41.9250 -79.9636 77° East 436 502 22,700 1,200 Climbing Cleveland Center
09:24 41.9614 -79.7900 74° East 431 496 24,000 1,200 Climbing Cleveland Center
09:25 42.0333 -79.6550 54° Northeast 431 496 25,100 1,080 Climbing Cleveland Center
09:26 42.1114 -79.5281 50° Northeast 431 496 26,200 1,080 Climbing Cleveland Center
09:27 42.1894 -79.4006 50° Northeast 436 502 27,300 1,080 Climbing Cleveland Center
09:28 42.2567 -79.2647 56° Northeast 436 502 28,400 1,080 Climbing Cleveland Center
09:29 42.2758 -79.1100 80° East 422 486 29,500 1,080 Climbing Cleveland Center
09:30 42.2922 -78.9494 82° East 415 478 30,600 1,020 Climbing Cleveland Center
09:31 42.3111 -78.8058 80° East 420 483 31,600 1,080 Climbing Cleveland Center
09:32 42.3272 -78.6481 82° East 420 483 32,800 660 Climbing Cleveland Center
09:33 42.3453 -78.4847 81° East 430 495 33,000  Climbing Cleveland Center
09:34 42.3628 -78.3125 82° East 440 506 32,800 -600 Descending Cleveland Center
09:35 42.3819 -78.1292 82° East 469 540 31,900 -900 Descending Cleveland Center
09:36 42.4008 -77.9483 82° East 483 556 31,000 -480 Descending Cleveland Center
09:37 42.4192 -77.7508 83° East 483 556 31,000  Level Cleveland Center
09:39 42.4511 -77.4303 82° East 505 581 31,000  Level Boston Center
09:40 42.4694 -77.2514 82° East 495 570 31,000  Level Boston Center
09:41 42.4872 -77.0697 82° East 490 564 31,000  Level Boston Center
09:42 42.5053 -76.8850 82° East 490 564 31,000  Level Boston Center
09:43 42.5225 -76.7058 83° East 490 564 31,000  Level Boston Center
09:44 42.5375 -76.5208 84° East 485 558 31,000  Level Boston Center
09:45 42.5544 -76.3386 83° East 485 558 31,000 -60 Level Boston Center
09:46 42.5689 -76.1561 84° East 485 558 30,900  Descending Boston Center
09:47 42.5833 -75.9681 84° East 485 558 31,000  Climbing Boston Center
09:48 42.5847 -75.7847 89° East 485 558 31,000  Level Boston Center
09:49 42.5814 -75.6011 91° East 485 558 31,000  Level Boston Center
09:50 42.5825 -75.4150 89° East 485 558 31,000  Level Boston Center
09:51 42.5828 -75.2319 90° East 485 558 31,000  Level Boston Center
09:52 42.5831 -75.0486 90° East 485 558 31,000  Level Boston Center
09:53 42.5850 -74.8625 89° East 485 558 31,000  Level Boston Center
09:54 42.5847 -74.6764 90° East 485 558 31,000  Level Boston Center
09:55 42.5819 -74.4958 91° East 485 558 31,000  Level Boston Center
09:56 42.5825 -74.3322 90° East 480 552 31,000  Level Boston Center
09:57 42.5814 -74.1489 90° East 475 547 31,000 -360 Level Boston Center
09:58 42.5797 -73.9656 91° East 475 547 30,300 -840 Descending Boston Center
09:59 42.5781 -73.7850 91° East 475 547 29,400 -1,020 Descending Boston Center
10:00 42.5778 -73.6044 90° East 475 547 28,400 -1,560 Descending Boston Center
10:01 42.5756 -73.4156 91° East 480 552 26,400 -1,740 Descending Boston Center
10:02 42.5708 -73.2153 92° East 487 560 25,000 -720 Descending Boston Center
10:03 42.5678 -73.0322 91° East 479 551 25,000  Level Boston Center
10:04 42.5664 -72.8403 90° East 479 551 25,000  Level Boston Center
10:05 42.5586 -72.6656 93° East 479 551 25,000  Level Boston Center
10:06 42.5567 -72.4794 91° East 479 551 25,000 -60 Level Boston Center
10:07 42.5525 -72.2992 92° East 479 551 24,900  Descending Boston Center
10:08 42.5481 -72.1583 92° East 431 496 25,000  Climbing Boston Center
10:09 42.5475 -71.9947 90° East 387 445 25,000  Level Boston Center
10:10 42.6119 -71.9775 11° North 245 282 25,000  Level Boston Center
10:11 42.6478 -72.0731 297° West 158 182 25,000 -180 Level Boston Center
10:12 42.6711 -72.1692 288° West 181 208 24,700 -480 Descending Boston Center
10:13 42.6878 -72.2706 283° West 231 266 24,100 -660 Descending Boston Center
10:14 42.7131 -72.3694 289° West 256 295 23,400 -840 Descending Boston Center
10:15 42.7297 -72.4628 284° West 263 303 22,400 -1,320 Descending Boston Center
10:16 42.6608 -72.4967 200° South 193 222 20,900 -1,860 Descending Boston Center
10:17 42.5900 -72.3725 128° Southeast 230 265 18,800 -2,040 Descending Boston Center
10:18 42.5731 -72.2172 98° East 317 365 16,900 -2,340 Descending Boston Center
10:19 42.5539 -72.0456 99° East 415 478 14,200 -2,580 Descending Boston Center
10:20 42.5389 -71.9103 99° East 407 468 11,800 -1,680 Descending Boston Center
10:21 42.5214 -71.7725 100° East 372 428 10,900 -1,200 Descending Boston Center
10:22 42.5103 -71.6739 99° East 302 348 9,500 -1,020 Descending Boston Center
10:23 42.5011 -71.5558 96° East 281 323 8,900 -300 Descending Boston Center
10:24 42.4922 -71.4800 99° East 266 306 9,000 60 Climbing Boston Center
10:25 42.4828 -71.3675 96° East 253 291 9,100  Climbing Boston Center
10:26 42.4667 -71.2500 100° East 272 313 9,000 -60 Descending KA90
10:27 42.4667 -71.1500 90° East 266 306 9,000  Level KA90
10:28 42.4500 -71.0667 105° East 259 298 9,000  Level KA90
10:29 42.4500 -70.9667 90° East 262 302 9,100  Climbing KA90
10:30 42.4667 -70.8667 77° East 260 299 9,000 -300 Descending KA90
10:31 42.5000 -70.7833 61° Northeast 264 304 8,600 -540 Descending KA90
10:32 42.5500 -70.7500 26° Northeast 247 284 8,000 -300 Descending KA90
10:33 42.6000 -70.8000 324° Northwest 208 239 8,000 -300 Level KA90
10:34 42.6333 -70.8667 304° West 223 257 7,400 -1,080 Descending KA90
10:35 42.6092 -70.9336 244° Southwest 182 209 5,800 -1,620 Descending Boston Center
10:36 42.5833 -70.9833 235° Southwest 210 242 4,200 -960 Descending KA90
10:37 42.5500 -71.0500 236° Southwest 192 221 4,100 -600 Descending KA90
10:38 42.5167 -71.1167 236° Southwest 198 228 3,100 -1,020 Descending KA90